sensor_id;sensor_type;location;lat;lon;timestamp;P1;durP1;ratioP1;P2;durP2;ratioP2
23266;SDS011;11802;53.160;8.214;2023-07-02T00:02:06;9.18;;;3.30;;
23266;SDS011;11802;53.160;8.214;2023-07-02T00:04:32;6.40;;;3.27;;
23266;SDS011;11802;53.160;8.214;2023-07-02T00:06:57;8.18;;;3.85;;
23266;SDS011;11802;53.160;8.214;2023-07-02T00:09:23;5.70;;;2.80;;
23266;SDS011;11802;53.160;8.214;2023-07-02T00:11:48;9.50;;;3.40;;
23266;SDS011;11802;53.160;8.214;2023-07-02T00:14:14;9.02;;;3.25;;
23266;SDS011;11802;53.160;8.214;2023-07-02T00:16:42;5.33;;;3.17;;
23266;SDS011;11802;53.160;8.214;2023-07-02T00:19:09;10.55;;;3.60;;
23266;SDS011;11802;53.160;8.214;2023-07-02T00:21:35;9.10;;;4.07;;
23266;SDS011;11802;53.160;8.214;2023-07-02T00:24:02;7.87;;;3.70;;
23266;SDS011;11802;53.160;8.214;2023-07-02T00:26:28;7.65;;;3.08;;
23266;SDS011;11802;53.160;8.214;2023-07-02T00:28:54;5.47;;;3.60;;
23266;SDS011;11802;53.160;8.214;2023-07-02T00:31:20;8.45;;;3.63;;
23266;SDS011;11802;53.160;8.214;2023-07-02T00:33:46;11.07;;;3.47;;
23266;SDS011;11802;53.160;8.214;2023-07-02T00:36:12;7.68;;;3.97;;
23266;SDS011;11802;53.160;8.214;2023-07-02T00:38:44;11.60;;;3.40;;
23266;SDS011;11802;53.160;8.214;2023-07-02T00:41:11;6.60;;;3.60;;
23266;SDS011;11802;53.160;8.214;2023-07-02T00:43:37;7.10;;;3.60;;
23266;SDS011;11802;53.160;8.214;2023-07-02T00:46:09;7.20;;;3.73;;
23266;SDS011;11802;53.160;8.214;2023-07-02T00:48:39;7.97;;;3.17;;
23266;SDS011;11802;53.160;8.214;2023-07-02T00:51:05;7.23;;;3.17;;
23266;SDS011;11802;53.160;8.214;2023-07-02T00:53:31;9.07;;;3.60;;
23266;SDS011;11802;53.160;8.214;2023-07-02T00:55:57;6.40;;;3.58;;
23266;SDS011;11802;53.160;8.214;2023-07-02T00:58:23;8.13;;;3.28;;
23266;SDS011;11802;53.160;8.214;2023-07-02T01:00:48;8.90;;;3.30;;
23266;SDS011;11802;53.160;8.214;2023-07-02T01:03:14;8.02;;;3.80;;
23266;SDS011;11802;53.160;8.214;2023-07-02T01:05:40;9.73;;;4.10;;
23266;SDS011;11802;53.160;8.214;2023-07-02T01:08:06;6.70;;;3.72;;
23266;SDS011;11802;53.160;8.214;2023-07-02T01:10:32;11.95;;;4.10;;
23266;SDS011;11802;53.160;8.214;2023-07-02T01:13:00;6.17;;;3.23;;
23266;SDS011;11802;53.160;8.214;2023-07-02T01:15:31;5.57;;;2.73;;
23266;SDS011;11802;53.160;8.214;2023-07-02T01:17:57;6.68;;;3.17;;
23266;SDS011;11802;53.160;8.214;2023-07-02T01:20:24;10.07;;;4.87;;
23266;SDS011;11802;53.160;8.214;2023-07-02T01:22:51;8.35;;;4.03;;
23266;SDS011;11802;53.160;8.214;2023-07-02T01:25:17;10.83;;;4.37;;
23266;SDS011;11802;53.160;8.214;2023-07-02T01:27:43;6.50;;;3.80;;
23266;SDS011;11802;53.160;8.214;2023-07-02T01:30:09;10.43;;;4.17;;
23266;SDS011;11802;53.160;8.214;2023-07-02T01:32:36;10.27;;;4.17;;
23266;SDS011;11802;53.160;8.214;2023-07-02T01:35:02;9.77;;;4.40;;
23266;SDS011;11802;53.160;8.214;2023-07-02T01:37:28;11.55;;;4.72;;
23266;SDS011;11802;53.160;8.214;2023-07-02T01:40:02;6.90;;;3.73;;
23266;SDS011;11802;53.160;8.214;2023-07-02T01:42:31;6.50;;;3.63;;
23266;SDS011;11802;53.160;8.214;2023-07-02T01:44:57;10.73;;;4.47;;
23266;SDS011;11802;53.160;8.214;2023-07-02T01:47:22;6.43;;;4.07;;
23266;SDS011;11802;53.160;8.214;2023-07-02T01:49:49;12.67;;;4.43;;
23266;SDS011;11802;53.160;8.214;2023-07-02T01:52:15;10.73;;;4.77;;
23266;SDS011;11802;53.160;8.214;2023-07-02T01:54:41;12.47;;;4.70;;
23266;SDS011;11802;53.160;8.214;2023-07-02T01:57:07;15.83;;;5.40;;
23266;SDS011;11802;53.160;8.214;2023-07-02T01:59:33;11.70;;;5.10;;
23266;SDS011;11802;53.160;8.214;2023-07-02T02:01:59;9.60;;;4.60;;
23266;SDS011;11802;53.160;8.214;2023-07-02T02:04:24;14.70;;;5.30;;
23266;SDS011;11802;53.160;8.214;2023-07-02T02:06:50;10.00;;;4.97;;
23266;SDS011;11802;53.160;8.214;2023-07-02T02:09:17;10.80;;;4.87;;
23266;SDS011;11802;53.160;8.214;2023-07-02T02:11:43;10.87;;;4.80;;
23266;SDS011;11802;53.160;8.214;2023-07-02T02:14:10;13.20;;;5.60;;
23266;SDS011;11802;53.160;8.214;2023-07-02T02:16:36;17.83;;;6.03;;
23266;SDS011;11802;53.160;8.214;2023-07-02T02:19:01;13.33;;;4.97;;
23266;SDS011;11802;53.160;8.214;2023-07-02T02:21:28;11.93;;;4.77;;
23266;SDS011;11802;53.160;8.214;2023-07-02T02:23:54;13.77;;;5.33;;
23266;SDS011;11802;53.160;8.214;2023-07-02T02:26:20;15.37;;;5.73;;
23266;SDS011;11802;53.160;8.214;2023-07-02T02:28:46;16.13;;;5.47;;
23266;SDS011;11802;53.160;8.214;2023-07-02T02:31:13;14.43;;;6.13;;
23266;SDS011;11802;53.160;8.214;2023-07-02T02:33:39;14.87;;;5.57;;
23266;SDS011;11802;53.160;8.214;2023-07-02T02:36:05;13.70;;;5.90;;
23266;SDS011;11802;53.160;8.214;2023-07-02T02:38:30;15.53;;;5.53;;
23266;SDS011;11802;53.160;8.214;2023-07-02T02:40:56;13.27;;;5.53;;
23266;SDS011;11802;53.160;8.214;2023-07-02T02:43:21;16.13;;;6.10;;
23266;SDS011;11802;53.160;8.214;2023-07-02T02:45:47;15.13;;;5.93;;
23266;SDS011;11802;53.160;8.214;2023-07-02T02:48:13;19.70;;;6.37;;
23266;SDS011;11802;53.160;8.214;2023-07-02T02:50:38;15.37;;;6.33;;
23266;SDS011;11802;53.160;8.214;2023-07-02T02:53:08;14.83;;;6.47;;
23266;SDS011;11802;53.160;8.214;2023-07-02T02:55:33;17.87;;;6.40;;
23266;SDS011;11802;53.160;8.214;2023-07-02T02:58:00;16.77;;;6.27;;
23266;SDS011;11802;53.160;8.214;2023-07-02T03:00:25;14.50;;;5.83;;
23266;SDS011;11802;53.160;8.214;2023-07-02T03:02:51;16.37;;;6.03;;
23266;SDS011;11802;53.160;8.214;2023-07-02T03:05:17;17.33;;;6.63;;
23266;SDS011;11802;53.160;8.214;2023-07-02T03:07:42;15.87;;;6.63;;
23266;SDS011;11802;53.160;8.214;2023-07-02T03:10:08;18.10;;;6.40;;
23266;SDS011;11802;53.160;8.214;2023-07-02T03:12:34;15.57;;;5.73;;
23266;SDS011;11802;53.160;8.214;2023-07-02T03:14:59;13.53;;;5.90;;
23266;SDS011;11802;53.160;8.214;2023-07-02T03:17:25;19.07;;;6.93;;
23266;SDS011;11802;53.160;8.214;2023-07-02T03:19:51;17.53;;;6.40;;
23266;SDS011;11802;53.160;8.214;2023-07-02T03:22:16;22.17;;;6.67;;
23266;SDS011;11802;53.160;8.214;2023-07-02T03:24:42;17.27;;;6.40;;
23266;SDS011;11802;53.160;8.214;2023-07-02T03:27:08;15.67;;;6.83;;
23266;SDS011;11802;53.160;8.214;2023-07-02T03:29:33;21.30;;;6.83;;
23266;SDS011;11802;53.160;8.214;2023-07-02T03:31:59;23.07;;;8.23;;
23266;SDS011;11802;53.160;8.214;2023-07-02T03:34:25;18.80;;;7.00;;
23266;SDS011;11802;53.160;8.214;2023-07-02T03:36:51;17.60;;;7.40;;
23266;SDS011;11802;53.160;8.214;2023-07-02T03:39:17;17.33;;;6.93;;
23266;SDS011;11802;53.160;8.214;2023-07-02T03:41:42;18.30;;;6.87;;
23266;SDS011;11802;53.160;8.214;2023-07-02T03:44:08;18.10;;;6.67;;
23266;SDS011;11802;53.160;8.214;2023-07-02T03:46:34;16.37;;;6.90;;
23266;SDS011;11802;53.160;8.214;2023-07-02T03:49:00;19.70;;;7.43;;
23266;SDS011;11802;53.160;8.214;2023-07-02T03:51:28;16.93;;;7.10;;
23266;SDS011;11802;53.160;8.214;2023-07-02T03:53:53;24.70;;;7.27;;
23266;SDS011;11802;53.160;8.214;2023-07-02T03:56:19;16.53;;;6.43;;
23266;SDS011;11802;53.160;8.214;2023-07-02T03:58:44;16.10;;;6.87;;
23266;SDS011;11802;53.160;8.214;2023-07-02T04:01:10;18.90;;;6.77;;
23266;SDS011;11802;53.160;8.214;2023-07-02T04:03:35;18.20;;;6.77;;
23266;SDS011;11802;53.160;8.214;2023-07-02T04:06:01;19.90;;;7.30;;
23266;SDS011;11802;53.160;8.214;2023-07-02T04:08:26;17.53;;;6.80;;
23266;SDS011;11802;53.160;8.214;2023-07-02T04:10:55;17.98;;;6.78;;
23266;SDS011;11802;53.160;8.214;2023-07-02T04:13:20;17.35;;;5.85;;
23266;SDS011;11802;53.160;8.214;2023-07-02T04:15:46;14.02;;;5.88;;
23266;SDS011;11802;53.160;8.214;2023-07-02T04:18:12;15.77;;;6.57;;
23266;SDS011;11802;53.160;8.214;2023-07-02T04:20:38;20.63;;;7.13;;
23266;SDS011;11802;53.160;8.214;2023-07-02T04:23:04;16.45;;;6.28;;
23266;SDS011;11802;53.160;8.214;2023-07-02T04:25:30;17.75;;;6.55;;
23266;SDS011;11802;53.160;8.214;2023-07-02T04:27:56;24.25;;;7.18;;
23266;SDS011;11802;53.160;8.214;2023-07-02T04:30:23;18.35;;;6.55;;
23266;SDS011;11802;53.160;8.214;2023-07-02T04:32:50;17.95;;;6.22;;
23266;SDS011;11802;53.160;8.214;2023-07-02T04:35:18;14.57;;;5.90;;
23266;SDS011;11802;53.160;8.214;2023-07-02T04:37:44;18.17;;;6.00;;
23266;SDS011;11802;53.160;8.214;2023-07-02T04:40:09;15.10;;;6.25;;
23266;SDS011;11802;53.160;8.214;2023-07-02T04:42:38;19.05;;;6.57;;
23266;SDS011;11802;53.160;8.214;2023-07-02T04:45:06;15.98;;;6.40;;
23266;SDS011;11802;53.160;8.214;2023-07-02T04:47:33;17.02;;;6.88;;
23266;SDS011;11802;53.160;8.214;2023-07-02T04:49:59;15.50;;;6.38;;
23266;SDS011;11802;53.160;8.214;2023-07-02T04:52:25;17.65;;;6.75;;
23266;SDS011;11802;53.160;8.214;2023-07-02T04:54:50;17.85;;;6.72;;
23266;SDS011;11802;53.160;8.214;2023-07-02T04:57:16;21.58;;;7.35;;
23266;SDS011;11802;53.160;8.214;2023-07-02T04:59:42;15.93;;;6.68;;
23266;SDS011;11802;53.160;8.214;2023-07-02T05:02:08;19.05;;;6.57;;
23266;SDS011;11802;53.160;8.214;2023-07-02T05:04:34;20.75;;;6.97;;
23266;SDS011;11802;53.160;8.214;2023-07-02T05:07:01;17.85;;;7.28;;
23266;SDS011;11802;53.160;8.214;2023-07-02T05:09:26;18.85;;;7.43;;
23266;SDS011;11802;53.160;8.214;2023-07-02T05:11:52;17.77;;;7.28;;
23266;SDS011;11802;53.160;8.214;2023-07-02T05:14:17;17.75;;;7.57;;
23266;SDS011;11802;53.160;8.214;2023-07-02T05:16:43;20.00;;;7.13;;
23266;SDS011;11802;53.160;8.214;2023-07-02T05:19:09;19.05;;;7.82;;
23266;SDS011;11802;53.160;8.214;2023-07-02T05:21:34;16.88;;;6.60;;
23266;SDS011;11802;53.160;8.214;2023-07-02T05:24:00;18.13;;;6.95;;
23266;SDS011;11802;53.160;8.214;2023-07-02T05:26:25;24.08;;;7.63;;
23266;SDS011;11802;53.160;8.214;2023-07-02T05:28:52;24.45;;;8.23;;
23266;SDS011;11802;53.160;8.214;2023-07-02T05:31:17;15.60;;;7.05;;
23266;SDS011;11802;53.160;8.214;2023-07-02T05:33:43;16.50;;;6.70;;
23266;SDS011;11802;53.160;8.214;2023-07-02T05:36:09;16.10;;;7.18;;
23266;SDS011;11802;53.160;8.214;2023-07-02T05:38:34;19.13;;;7.28;;
23266;SDS011;11802;53.160;8.214;2023-07-02T05:41:00;17.90;;;7.68;;
23266;SDS011;11802;53.160;8.214;2023-07-02T05:43:26;14.95;;;6.80;;
23266;SDS011;11802;53.160;8.214;2023-07-02T05:45:52;19.65;;;7.55;;
23266;SDS011;11802;53.160;8.214;2023-07-02T05:48:18;19.98;;;6.95;;
23266;SDS011;11802;53.160;8.214;2023-07-02T05:50:43;19.10;;;7.60;;
23266;SDS011;11802;53.160;8.214;2023-07-02T05:53:09;20.77;;;7.28;;
23266;SDS011;11802;53.160;8.214;2023-07-02T05:55:35;21.08;;;7.80;;
23266;SDS011;11802;53.160;8.214;2023-07-02T05:58:01;21.25;;;7.35;;
23266;SDS011;11802;53.160;8.214;2023-07-02T06:00:28;19.23;;;7.47;;
23266;SDS011;11802;53.160;8.214;2023-07-02T06:02:53;14.95;;;7.00;;
23266;SDS011;11802;53.160;8.214;2023-07-02T06:05:19;17.17;;;6.53;;
23266;SDS011;11802;53.160;8.214;2023-07-02T06:07:45;15.40;;;7.05;;
23266;SDS011;11802;53.160;8.214;2023-07-02T06:10:10;19.10;;;8.07;;
23266;SDS011;11802;53.160;8.214;2023-07-02T06:12:36;17.80;;;6.70;;
23266;SDS011;11802;53.160;8.214;2023-07-02T06:15:02;19.25;;;6.65;;
23266;SDS011;11802;53.160;8.214;2023-07-02T06:17:27;18.50;;;7.30;;
23266;SDS011;11802;53.160;8.214;2023-07-02T06:19:55;16.35;;;6.75;;
23266;SDS011;11802;53.160;8.214;2023-07-02T06:22:22;16.45;;;7.00;;
23266;SDS011;11802;53.160;8.214;2023-07-02T06:24:48;17.42;;;7.05;;
23266;SDS011;11802;53.160;8.214;2023-07-02T06:27:13;19.08;;;7.32;;
23266;SDS011;11802;53.160;8.214;2023-07-02T06:29:39;15.65;;;7.25;;
23266;SDS011;11802;53.160;8.214;2023-07-02T06:32:05;16.23;;;7.03;;
23266;SDS011;11802;53.160;8.214;2023-07-02T06:34:30;14.52;;;7.00;;
23266;SDS011;11802;53.160;8.214;2023-07-02T06:36:56;19.13;;;8.00;;
23266;SDS011;11802;53.160;8.214;2023-07-02T06:39:21;18.63;;;7.57;;
23266;SDS011;11802;53.160;8.214;2023-07-02T06:41:47;15.40;;;6.90;;
23266;SDS011;11802;53.160;8.214;2023-07-02T06:44:12;18.33;;;7.60;;
23266;SDS011;11802;53.160;8.214;2023-07-02T06:46:38;17.00;;;6.88;;
23266;SDS011;11802;53.160;8.214;2023-07-02T06:49:04;13.90;;;6.85;;
23266;SDS011;11802;53.160;8.214;2023-07-02T06:51:29;15.40;;;6.78;;
23266;SDS011;11802;53.160;8.214;2023-07-02T06:53:55;17.35;;;6.45;;
23266;SDS011;11802;53.160;8.214;2023-07-02T06:56:20;16.55;;;6.30;;
23266;SDS011;11802;53.160;8.214;2023-07-02T06:58:46;12.15;;;5.72;;
23266;SDS011;11802;53.160;8.214;2023-07-02T07:01:11;16.15;;;5.68;;
23266;SDS011;11802;53.160;8.214;2023-07-02T07:03:37;15.32;;;5.80;;
23266;SDS011;11802;53.160;8.214;2023-07-02T07:06:03;12.95;;;5.32;;
23266;SDS011;11802;53.160;8.214;2023-07-02T07:08:28;14.35;;;6.10;;
23266;SDS011;11802;53.160;8.214;2023-07-02T07:10:54;12.98;;;5.72;;
23266;SDS011;11802;53.160;8.214;2023-07-02T07:13:20;15.27;;;6.22;;
23266;SDS011;11802;53.160;8.214;2023-07-02T07:15:45;13.20;;;5.68;;
23266;SDS011;11802;53.160;8.214;2023-07-02T07:18:11;13.50;;;5.40;;
23266;SDS011;11802;53.160;8.214;2023-07-02T07:20:38;15.57;;;5.82;;
23266;SDS011;11802;53.160;8.214;2023-07-02T07:23:04;15.50;;;6.03;;
23266;SDS011;11802;53.160;8.214;2023-07-02T07:25:30;13.45;;;5.63;;
23266;SDS011;11802;53.160;8.214;2023-07-02T07:27:57;12.13;;;5.90;;
23266;SDS011;11802;53.160;8.214;2023-07-02T07:30:24;12.93;;;6.03;;
23266;SDS011;11802;53.160;8.214;2023-07-02T07:32:50;15.68;;;5.78;;
23266;SDS011;11802;53.160;8.214;2023-07-02T07:35:17;11.48;;;5.55;;
23266;SDS011;11802;53.160;8.214;2023-07-02T07:37:43;14.23;;;5.40;;
23266;SDS011;11802;53.160;8.214;2023-07-02T07:40:09;16.60;;;5.93;;
23266;SDS011;11802;53.160;8.214;2023-07-02T07:42:35;12.90;;;5.70;;
23266;SDS011;11802;53.160;8.214;2023-07-02T07:45:02;14.23;;;5.60;;
23266;SDS011;11802;53.160;8.214;2023-07-02T07:47:28;11.35;;;5.13;;
23266;SDS011;11802;53.160;8.214;2023-07-02T07:49:53;10.68;;;5.38;;
23266;SDS011;11802;53.160;8.214;2023-07-02T07:52:19;12.25;;;4.95;;
23266;SDS011;11802;53.160;8.214;2023-07-02T07:54:45;12.30;;;4.97;;
23266;SDS011;11802;53.160;8.214;2023-07-02T07:57:11;9.90;;;4.97;;
23266;SDS011;11802;53.160;8.214;2023-07-02T07:59:36;14.63;;;5.57;;
23266;SDS011;11802;53.160;8.214;2023-07-02T08:02:02;14.52;;;5.40;;
23266;SDS011;11802;53.160;8.214;2023-07-02T08:04:27;12.70;;;5.45;;
23266;SDS011;11802;53.160;8.214;2023-07-02T08:06:53;10.82;;;4.68;;
23266;SDS011;11802;53.160;8.214;2023-07-02T08:09:19;12.98;;;5.47;;
23266;SDS011;11802;53.160;8.214;2023-07-02T08:11:45;16.25;;;4.93;;
23266;SDS011;11802;53.160;8.214;2023-07-02T08:14:11;14.13;;;5.18;;
23266;SDS011;11802;53.160;8.214;2023-07-02T08:16:37;14.45;;;4.95;;
23266;SDS011;11802;53.160;8.214;2023-07-02T08:19:03;12.38;;;4.57;;
23266;SDS011;11802;53.160;8.214;2023-07-02T08:21:28;14.30;;;5.55;;
23266;SDS011;11802;53.160;8.214;2023-07-02T08:23:54;12.85;;;5.00;;
23266;SDS011;11802;53.160;8.214;2023-07-02T08:26:19;12.38;;;4.68;;
23266;SDS011;11802;53.160;8.214;2023-07-02T08:28:45;12.30;;;4.30;;
23266;SDS011;11802;53.160;8.214;2023-07-02T08:31:10;8.23;;;4.20;;
23266;SDS011;11802;53.160;8.214;2023-07-02T08:33:36;9.75;;;4.43;;
23266;SDS011;11802;53.160;8.214;2023-07-02T08:36:01;11.00;;;4.30;;
23266;SDS011;11802;53.160;8.214;2023-07-02T08:38:27;15.13;;;4.93;;
23266;SDS011;11802;53.160;8.214;2023-07-02T08:40:53;10.25;;;4.97;;
23266;SDS011;11802;53.160;8.214;2023-07-02T08:43:18;10.35;;;4.75;;
23266;SDS011;11802;53.160;8.214;2023-07-02T08:45:44;9.55;;;4.97;;
23266;SDS011;11802;53.160;8.214;2023-07-02T08:48:10;10.93;;;5.10;;
23266;SDS011;11802;53.160;8.214;2023-07-02T08:50:36;8.55;;;4.47;;
23266;SDS011;11802;53.160;8.214;2023-07-02T08:53:02;11.38;;;4.70;;
23266;SDS011;11802;53.160;8.214;2023-07-02T08:55:27;11.13;;;3.75;;
23266;SDS011;11802;53.160;8.214;2023-07-02T08:57:55;8.90;;;4.00;;
23266;SDS011;11802;53.160;8.214;2023-07-02T09:00:25;8.35;;;3.97;;
23266;SDS011;11802;53.160;8.214;2023-07-02T09:02:51;10.13;;;4.60;;
23266;SDS011;11802;53.160;8.214;2023-07-02T09:05:17;9.65;;;5.00;;
23266;SDS011;11802;53.160;8.214;2023-07-02T09:07:46;10.40;;;4.35;;
23266;SDS011;11802;53.160;8.214;2023-07-02T09:10:25;9.02;;;4.50;;
23266;SDS011;11802;53.160;8.214;2023-07-02T09:13:05;9.57;;;4.88;;
23266;SDS011;11802;53.160;8.214;2023-07-02T09:15:35;9.27;;;4.43;;
23266;SDS011;11802;53.160;8.214;2023-07-02T09:18:14;9.57;;;3.33;;
23266;SDS011;11802;53.160;8.214;2023-07-02T09:20:44;8.02;;;2.83;;
23266;SDS011;11802;53.160;8.214;2023-07-02T09:23:09;6.10;;;2.78;;
23266;SDS011;11802;53.160;8.214;2023-07-02T09:25:39;8.38;;;2.90;;
23266;SDS011;11802;53.160;8.214;2023-07-02T09:30:50;5.10;;;2.78;;
23266;SDS011;11802;53.160;8.214;2023-07-02T09:33:20;9.25;;;3.10;;
23266;SDS011;11802;53.160;8.214;2023-07-02T09:35:48;6.10;;;2.92;;
23266;SDS011;11802;53.160;8.214;2023-07-02T09:38:16;9.52;;;3.15;;
23266;SDS011;11802;53.160;8.214;2023-07-02T09:40:45;7.05;;;2.78;;
23266;SDS011;11802;53.160;8.214;2023-07-02T09:43:16;8.52;;;2.85;;
23266;SDS011;11802;53.160;8.214;2023-07-02T09:45:44;8.05;;;2.95;;
23266;SDS011;11802;53.160;8.214;2023-07-02T09:48:15;9.23;;;2.83;;
23266;SDS011;11802;53.160;8.214;2023-07-02T09:50:44;6.43;;;2.38;;
23266;SDS011;11802;53.160;8.214;2023-07-02T09:53:11;8.55;;;2.53;;
23266;SDS011;11802;53.160;8.214;2023-07-02T09:55:43;8.40;;;2.40;;
23266;SDS011;11802;53.160;8.214;2023-07-02T09:58:09;6.63;;;2.08;;
23266;SDS011;11802;53.160;8.214;2023-07-02T10:00:36;9.07;;;2.47;;
23266;SDS011;11802;53.160;8.214;2023-07-02T10:03:02;9.35;;;2.50;;
23266;SDS011;11802;53.160;8.214;2023-07-02T10:05:29;7.00;;;2.55;;
23266;SDS011;11802;53.160;8.214;2023-07-02T10:07:59;5.68;;;2.33;;
23266;SDS011;11802;53.160;8.214;2023-07-02T10:10:38;7.63;;;2.97;;
23266;SDS011;11802;53.160;8.214;2023-07-02T10:13:04;7.57;;;2.75;;
23266;SDS011;11802;53.160;8.214;2023-07-02T10:15:30;7.72;;;2.30;;
23266;SDS011;11802;53.160;8.214;2023-07-02T10:18:02;4.97;;;2.33;;
23266;SDS011;11802;53.160;8.214;2023-07-02T10:20:32;5.72;;;2.20;;
23266;SDS011;11802;53.160;8.214;2023-07-02T10:23:03;8.20;;;2.70;;
23266;SDS011;11802;53.160;8.214;2023-07-02T10:25:33;8.95;;;2.58;;
23266;SDS011;11802;53.160;8.214;2023-07-02T10:28:12;10.75;;;2.58;;
23266;SDS011;11802;53.160;8.214;2023-07-02T10:30:39;8.95;;;2.33;;
23266;SDS011;11802;53.160;8.214;2023-07-02T10:33:13;8.27;;;2.90;;
23266;SDS011;11802;53.160;8.214;2023-07-02T10:35:41;8.13;;;2.70;;
23266;SDS011;11802;53.160;8.214;2023-07-02T10:38:17;9.80;;;2.85;;
23266;SDS011;11802;53.160;8.214;2023-07-02T10:40:45;8.40;;;2.47;;
23266;SDS011;11802;53.160;8.214;2023-07-02T10:43:11;6.40;;;2.22;;
23266;SDS011;11802;53.160;8.214;2023-07-02T10:45:36;9.65;;;2.97;;
23266;SDS011;11802;53.160;8.214;2023-07-02T10:48:02;8.10;;;2.40;;
23266;SDS011;11802;53.160;8.214;2023-07-02T10:50:29;6.63;;;2.35;;
23266;SDS011;11802;53.160;8.214;2023-07-02T10:52:56;4.25;;;2.13;;
23266;SDS011;11802;53.160;8.214;2023-07-02T10:55:22;6.30;;;2.50;;
23266;SDS011;11802;53.160;8.214;2023-07-02T10:57:49;11.10;;;2.72;;
23266;SDS011;11802;53.160;8.214;2023-07-02T11:00:18;6.47;;;2.95;;
23266;SDS011;11802;53.160;8.214;2023-07-02T11:02:44;6.55;;;3.00;;
23266;SDS011;11802;53.160;8.214;2023-07-02T11:05:10;11.45;;;3.42;;
23266;SDS011;11802;53.160;8.214;2023-07-02T11:07:39;14.05;;;3.15;;
23266;SDS011;11802;53.160;8.214;2023-07-02T11:10:06;9.43;;;3.50;;
23266;SDS011;11802;53.160;8.214;2023-07-02T11:12:33;7.55;;;3.22;;
23266;SDS011;11802;53.160;8.214;2023-07-02T11:15:08;7.03;;;2.90;;
23266;SDS011;11802;53.160;8.214;2023-07-02T11:17:44;11.45;;;3.28;;
23266;SDS011;11802;53.160;8.214;2023-07-02T11:20:10;7.25;;;2.80;;
23266;SDS011;11802;53.160;8.214;2023-07-02T11:22:37;9.18;;;3.20;;
23266;SDS011;11802;53.160;8.214;2023-07-02T11:25:11;7.30;;;3.08;;
23266;SDS011;11802;53.160;8.214;2023-07-02T11:27:44;7.82;;;3.25;;
23266;SDS011;11802;53.160;8.214;2023-07-02T11:30:09;6.82;;;3.25;;
23266;SDS011;11802;53.160;8.214;2023-07-02T11:32:52;9.38;;;3.00;;
23266;SDS011;11802;53.160;8.214;2023-07-02T11:35:19;8.57;;;3.20;;
23266;SDS011;11802;53.160;8.214;2023-07-02T11:37:45;11.13;;;3.22;;
23266;SDS011;11802;53.160;8.214;2023-07-02T11:40:11;11.95;;;3.63;;
23266;SDS011;11802;53.160;8.214;2023-07-02T11:42:38;9.45;;;3.10;;
23266;SDS011;11802;53.160;8.214;2023-07-02T11:45:04;13.82;;;3.63;;
23266;SDS011;11802;53.160;8.214;2023-07-02T11:47:30;5.50;;;2.55;;
23266;SDS011;11802;53.160;8.214;2023-07-02T11:49:55;6.85;;;2.58;;
23266;SDS011;11802;53.160;8.214;2023-07-02T11:52:21;9.93;;;2.92;;
23266;SDS011;11802;53.160;8.214;2023-07-02T11:54:47;9.45;;;2.58;;
23266;SDS011;11802;53.160;8.214;2023-07-02T11:57:13;8.15;;;2.90;;
23266;SDS011;11802;53.160;8.214;2023-07-02T11:59:38;11.10;;;3.15;;
23266;SDS011;11802;53.160;8.214;2023-07-02T12:02:04;7.25;;;3.17;;
23266;SDS011;11802;53.160;8.214;2023-07-02T12:04:30;13.38;;;3.25;;
23266;SDS011;11802;53.160;8.214;2023-07-02T12:06:55;7.63;;;3.00;;
23266;SDS011;11802;53.160;8.214;2023-07-02T12:09:21;11.32;;;3.28;;
23266;SDS011;11802;53.160;8.214;2023-07-02T12:11:46;10.27;;;3.80;;
23266;SDS011;11802;53.160;8.214;2023-07-02T12:14:12;10.10;;;3.60;;
23266;SDS011;11802;53.160;8.214;2023-07-02T12:16:38;8.45;;;3.40;;
23266;SDS011;11802;53.160;8.214;2023-07-02T12:19:03;11.25;;;3.88;;
23266;SDS011;11802;53.160;8.214;2023-07-02T12:21:29;10.57;;;4.03;;
23266;SDS011;11802;53.160;8.214;2023-07-02T12:23:54;9.45;;;3.10;;
23266;SDS011;11802;53.160;8.214;2023-07-02T12:26:20;9.35;;;3.65;;
23266;SDS011;11802;53.160;8.214;2023-07-02T12:28:45;9.43;;;3.63;;
23266;SDS011;11802;53.160;8.214;2023-07-02T12:31:11;8.40;;;3.25;;
23266;SDS011;11802;53.160;8.214;2023-07-02T12:33:38;9.80;;;3.22;;
23266;SDS011;11802;53.160;8.214;2023-07-02T12:36:04;8.30;;;3.03;;
23266;SDS011;11802;53.160;8.214;2023-07-02T12:38:30;9.05;;;3.42;;
23266;SDS011;11802;53.160;8.214;2023-07-02T12:40:55;10.48;;;3.17;;
23266;SDS011;11802;53.160;8.214;2023-07-02T12:43:21;8.00;;;2.78;;
23266;SDS011;11802;53.160;8.214;2023-07-02T12:45:46;6.53;;;2.80;;
23266;SDS011;11802;53.160;8.214;2023-07-02T12:48:12;9.45;;;3.13;;
23266;SDS011;11802;53.160;8.214;2023-07-02T12:50:38;7.05;;;2.70;;
23266;SDS011;11802;53.160;8.214;2023-07-02T12:53:04;8.57;;;3.10;;
23266;SDS011;11802;53.160;8.214;2023-07-02T12:55:30;7.78;;;2.70;;
23266;SDS011;11802;53.160;8.214;2023-07-02T12:57:55;7.35;;;2.72;;
23266;SDS011;11802;53.160;8.214;2023-07-02T13:00:21;6.68;;;2.83;;
23266;SDS011;11802;53.160;8.214;2023-07-02T13:02:47;9.13;;;3.10;;
23266;SDS011;11802;53.160;8.214;2023-07-02T13:05:13;12.13;;;3.53;;
23266;SDS011;11802;53.160;8.214;2023-07-02T13:07:38;7.38;;;2.67;;
23266;SDS011;11802;53.160;8.214;2023-07-02T13:10:04;8.65;;;3.20;;
23266;SDS011;11802;53.160;8.214;2023-07-02T13:12:30;11.32;;;2.83;;
23266;SDS011;11802;53.160;8.214;2023-07-02T13:14:56;6.53;;;2.67;;
23266;SDS011;11802;53.160;8.214;2023-07-02T13:17:21;7.85;;;2.90;;
23266;SDS011;11802;53.160;8.214;2023-07-02T13:19:47;6.65;;;2.70;;
23266;SDS011;11802;53.160;8.214;2023-07-02T13:22:13;7.65;;;3.00;;
23266;SDS011;11802;53.160;8.214;2023-07-02T13:24:39;8.45;;;3.03;;
23266;SDS011;11802;53.160;8.214;2023-07-02T13:27:06;12.85;;;3.03;;
23266;SDS011;11802;53.160;8.214;2023-07-02T13:29:37;6.60;;;2.83;;
23266;SDS011;11802;53.160;8.214;2023-07-02T13:32:03;10.93;;;3.25;;
23266;SDS011;11802;53.160;8.214;2023-07-02T13:34:29;9.30;;;2.85;;
23266;SDS011;11802;53.160;8.214;2023-07-02T13:36:54;8.98;;;2.90;;
23266;SDS011;11802;53.160;8.214;2023-07-02T13:39:20;10.30;;;3.58;;
23266;SDS011;11802;53.160;8.214;2023-07-02T13:41:45;8.73;;;3.08;;
23266;SDS011;11802;53.160;8.214;2023-07-02T13:44:11;5.85;;;2.72;;
23266;SDS011;11802;53.160;8.214;2023-07-02T13:46:36;6.57;;;2.92;;
23266;SDS011;11802;53.160;8.214;2023-07-02T13:49:02;6.53;;;2.97;;
23266;SDS011;11802;53.160;8.214;2023-07-02T13:51:27;6.20;;;2.53;;
23266;SDS011;11802;53.160;8.214;2023-07-02T13:53:53;5.50;;;2.42;;
23266;SDS011;11802;53.160;8.214;2023-07-02T13:56:19;7.30;;;2.30;;
23266;SDS011;11802;53.160;8.214;2023-07-02T13:58:58;5.38;;;2.20;;
23266;SDS011;11802;53.160;8.214;2023-07-02T14:01:25;11.35;;;3.15;;
23266;SDS011;11802;53.160;8.214;2023-07-02T14:03:51;10.30;;;2.50;;
23266;SDS011;11802;53.160;8.214;2023-07-02T14:06:18;6.00;;;2.28;;
23266;SDS011;11802;53.160;8.214;2023-07-02T14:08:44;8.35;;;2.63;;
23266;SDS011;11802;53.160;8.214;2023-07-02T14:11:09;8.27;;;2.78;;
23266;SDS011;11802;53.160;8.214;2023-07-02T14:13:35;6.95;;;2.08;;
23266;SDS011;11802;53.160;8.214;2023-07-02T14:16:01;7.32;;;2.38;;
23266;SDS011;11802;53.160;8.214;2023-07-02T14:18:26;7.65;;;2.63;;
23266;SDS011;11802;53.160;8.214;2023-07-02T14:20:52;6.25;;;2.33;;
23266;SDS011;11802;53.160;8.214;2023-07-02T14:23:17;8.35;;;2.22;;
23266;SDS011;11802;53.160;8.214;2023-07-02T14:25:43;6.28;;;2.90;;
23266;SDS011;11802;53.160;8.214;2023-07-02T14:28:09;10.60;;;2.80;;
23266;SDS011;11802;53.160;8.214;2023-07-02T14:30:35;6.50;;;2.60;;
23266;SDS011;11802;53.160;8.214;2023-07-02T14:33:01;7.15;;;2.75;;
23266;SDS011;11802;53.160;8.214;2023-07-02T14:35:27;7.20;;;3.20;;
23266;SDS011;11802;53.160;8.214;2023-07-02T14:37:54;7.03;;;2.58;;
23266;SDS011;11802;53.160;8.214;2023-07-02T14:40:20;8.23;;;3.08;;